createdAt,value
2019-01-17T00:01:42.219Z,-0.80
2019-01-17T00:04:35.347Z,-0.80
2019-01-17T00:07:22.559Z,-0.70
2019-01-17T00:10:18.709Z,-0.70
2019-01-17T00:13:05.838Z,-0.70
2019-01-17T00:15:50.158Z,-0.80
2019-01-17T00:18:33.770Z,-0.80
2019-01-17T00:21:25.076Z,-0.90
2019-01-17T00:24:12.193Z,-0.90
2019-01-17T00:26:59.268Z,-0.80
2019-01-17T00:29:46.341Z,-0.80
2019-01-17T00:32:23.757Z,-0.80
2019-01-17T00:35:11.332Z,-0.80
2019-01-17T00:38:01.175Z,-0.90
2019-01-17T00:40:47.408Z,-0.90
2019-01-17T00:43:25.728Z,-0.90
2019-01-17T00:46:11.779Z,-0.80
2019-01-17T00:48:47.149Z,-0.80
2019-01-17T00:51:40.120Z,-0.70
2019-01-17T00:54:26.304Z,-0.50
2019-01-17T00:57:03.079Z,-0.40
2019-01-17T00:59:41.884Z,-0.30
2019-01-17T01:02:23.328Z,-0.10
2019-01-17T01:05:16.545Z,0.10
2019-01-17T01:08:06.572Z,0.30
2019-01-17T01:10:54.008Z,0.40
2019-01-17T01:13:35.492Z,0.60
2019-01-17T01:16:22.564Z,0.70
2019-01-17T01:19:05.488Z,0.90
2019-01-17T01:22:05.748Z,0.90
2019-01-17T01:24:47.604Z,1.00
2019-01-17T01:27:32.847Z,1.00
2019-01-17T01:30:18.789Z,1.00
2019-01-17T01:33:05.923Z,1.00
2019-01-17T01:35:56.624Z,1.10
2019-01-17T01:38:51.447Z,1.10
2019-01-17T01:41:44.665Z,1.20
2019-01-17T01:44:40.977Z,1.20
2019-01-17T01:47:30.836Z,1.20
2019-01-17T01:50:08.945Z,1.20
2019-01-17T01:53:05.326Z,1.30
2019-01-17T01:55:33.756Z,1.30
2019-01-17T01:58:01.724Z,1.30
2019-01-17T02:00:29.923Z,1.40
2019-01-17T02:02:57.925Z,1.60
2019-01-17T02:05:25.804Z,1.80
2019-01-17T02:07:54.040Z,1.90
2019-01-17T02:10:21.980Z,2.10
2019-01-17T02:12:49.854Z,2.30
2019-01-17T02:15:17.728Z,2.50
2019-01-17T02:17:45.604Z,2.80
2019-01-17T02:20:13.657Z,3.10
2019-01-17T02:22:41.613Z,3.50
2019-01-17T02:25:09.801Z,3.90
2019-01-17T02:27:37.684Z,4.30
2019-01-17T02:30:05.719Z,4.70
2019-01-17T02:32:33.635Z,5.20
2019-01-17T02:35:01.582Z,5.40
2019-01-17T02:37:29.465Z,5.60
2019-01-17T02:39:57.405Z,5.90
2019-01-17T02:42:25.361Z,6.10
2019-01-17T02:44:53.580Z,6.10
2019-01-17T02:47:21.536Z,6.20
2019-01-17T02:49:49.422Z,6.30
2019-01-17T02:52:17.283Z,6.30
2019-01-17T02:54:45.424Z,6.40
2019-01-17T02:57:13.301Z,6.40
2019-01-17T02:59:41.168Z,6.40
2019-01-17T03:02:09.130Z,6.30
2019-01-17T03:04:37.010Z,6.30
2019-01-17T03:07:04.968Z,6.30
2019-01-17T03:09:32.840Z,6.20
2019-01-17T03:12:00.883Z,6.10
2019-01-17T03:14:28.760Z,6.10
2019-01-17T03:16:56.708Z,6.00
2019-01-17T03:19:24.609Z,6.10
2019-01-17T03:21:52.488Z,6.20
2019-01-17T03:24:43.035Z,6.20
2019-01-17T03:27:09.256Z,6.30
2019-01-17T03:29:37.144Z,6.10
2019-01-17T03:32:05.073Z,6.10
2019-01-17T03:34:32.955Z,6.20
2019-01-17T03:37:01.121Z,6.30
2019-01-17T03:39:29.004Z,6.40
2019-01-17T03:41:56.953Z,6.30
2019-01-17T03:44:24.920Z,6.20
2019-01-17T03:46:52.809Z,6.10
2019-01-17T03:49:20.692Z,6.10
2019-01-17T03:51:48.678Z,6.10
2019-01-17T03:54:17.152Z,6.00
2019-01-17T03:56:45.106Z,6.00
2019-01-17T03:59:12.991Z,6.00
2019-01-17T04:01:41.019Z,6.00
2019-01-17T04:04:08.898Z,6.10
2019-01-17T04:06:37.144Z,6.00
2019-01-17T04:09:06.104Z,6.00
2019-01-17T04:11:34.787Z,6.00
2019-01-17T04:14:02.672Z,5.90
2019-01-17T04:16:30.542Z,6.00
2019-01-17T04:18:58.943Z,6.00
2019-01-17T04:21:27.100Z,6.10
2019-01-17T04:23:55.004Z,6.20
2019-01-17T04:26:22.877Z,6.30
2019-01-17T04:28:50.743Z,6.40
2019-01-17T04:31:18.711Z,6.40
2019-01-17T04:33:46.871Z,6.40
2019-01-17T04:36:14.759Z,6.40
2019-01-17T04:38:42.921Z,6.40
2019-01-17T04:41:10.892Z,6.40
2019-01-17T04:43:38.773Z,6.40
2019-01-17T04:46:06.681Z,6.20
2019-01-17T04:48:34.875Z,6.30
2019-01-17T04:51:02.743Z,6.20
2019-01-17T04:53:30.630Z,6.00
2019-01-17T04:55:58.631Z,5.80
2019-01-17T04:58:26.557Z,5.70
2019-01-17T05:00:54.490Z,5.50
2019-01-17T05:03:22.385Z,5.40
2019-01-17T05:05:50.576Z,5.40
2019-01-17T05:08:18.475Z,5.30
2019-01-17T05:10:46.409Z,5.50
2019-01-17T05:13:14.343Z,5.70
2019-01-17T05:15:42.229Z,5.90
2019-01-17T05:18:10.168Z,6.10
2019-01-17T05:20:38.123Z,6.20
2019-01-17T05:23:06.913Z,6.40
2019-01-17T05:25:34.879Z,6.40
2019-01-17T05:28:02.741Z,6.50
2019-01-17T05:30:30.736Z,6.60
2019-01-17T05:32:58.688Z,6.70
2019-01-17T05:35:26.636Z,6.80
2019-01-17T05:37:54.541Z,6.80
2019-01-17T05:40:22.502Z,6.80
2019-01-17T05:42:50.501Z,6.80
2019-01-17T05:45:18.809Z,6.80
2019-01-17T05:47:46.769Z,6.90
2019-01-17T05:50:15.389Z,6.90
2019-01-17T05:52:46.584Z,6.80
2019-01-17T05:55:19.744Z,6.80
2019-01-17T05:57:44.206Z,6.70
2019-01-17T06:00:13.312Z,6.50
2019-01-17T06:02:41.181Z,6.50
2019-01-17T06:05:09.516Z,6.40
2019-01-17T06:07:37.409Z,6.40
2019-01-17T06:10:05.819Z,6.30
2019-01-17T06:12:33.695Z,6.20
2019-01-17T06:15:01.744Z,6.20
2019-01-17T06:17:29.607Z,6.30
2019-01-17T06:19:57.496Z,6.50
2019-01-17T06:22:25.378Z,6.50
2019-01-17T06:24:53.255Z,6.50
2019-01-17T06:27:21.134Z,6.50
2019-01-17T06:29:49.081Z,6.40
2019-01-17T06:32:17.025Z,6.30
2019-01-17T06:34:44.928Z,6.30
2019-01-17T06:37:12.864Z,6.30
2019-01-17T06:39:40.765Z,6.40
2019-01-17T06:42:08.701Z,6.60
2019-01-17T06:44:36.590Z,6.60
2019-01-17T06:47:04.460Z,6.70
2019-01-17T06:49:32.546Z,6.80
2019-01-17T06:52:00.420Z,6.90
2019-01-17T06:54:28.296Z,6.90
2019-01-17T06:56:56.193Z,7.00
2019-01-17T06:59:24.051Z,7.00
2019-01-17T07:01:51.945Z,7.20
2019-01-17T07:04:19.851Z,7.20
2019-01-17T07:06:47.770Z,7.30
2019-01-17T07:09:16.002Z,7.30
2019-01-17T07:11:43.925Z,7.20
2019-01-17T07:14:11.944Z,7.20
2019-01-17T07:16:39.836Z,7.10
2019-01-17T07:19:07.728Z,7.10
2019-01-17T07:21:35.641Z,7.10
2019-01-17T07:24:03.797Z,7.10
2019-01-17T07:26:31.701Z,7.20
2019-01-17T07:28:59.665Z,7.30
2019-01-17T07:31:27.759Z,7.30
2019-01-17T07:33:56.174Z,7.40
2019-01-17T07:36:24.674Z,7.40
2019-01-17T07:38:52.637Z,7.40
2019-01-17T07:41:20.593Z,7.50
2019-01-17T07:43:48.485Z,7.50
2019-01-17T07:46:16.381Z,7.40
2019-01-17T07:48:44.361Z,7.40
2019-01-17T07:51:12.266Z,7.40
2019-01-17T07:53:40.424Z,7.40
2019-01-17T07:56:08.275Z,7.50
2019-01-17T07:58:36.301Z,7.50
2019-01-17T08:01:04.252Z,7.50
2019-01-17T08:03:32.235Z,7.40
2019-01-17T08:06:00.376Z,7.40
2019-01-17T08:08:28.754Z,7.40
2019-01-17T08:10:56.640Z,7.30
2019-01-17T08:13:24.580Z,7.40
2019-01-17T08:15:52.480Z,7.50
2019-01-17T08:18:20.368Z,7.50
2019-01-17T08:20:48.297Z,7.60
2019-01-17T08:23:16.152Z,7.60
2019-01-17T08:25:44.191Z,7.60
2019-01-17T08:28:12.147Z,7.60
2019-01-17T08:30:40.056Z,7.60
2019-01-17T08:33:07.924Z,7.50
2019-01-17T08:35:36.465Z,7.50
2019-01-17T08:38:04.347Z,7.50
2019-01-17T08:40:33.068Z,7.50
2019-01-17T08:43:01.393Z,7.40
2019-01-17T08:45:29.340Z,7.40
2019-01-17T08:47:57.277Z,7.20
2019-01-17T08:50:25.240Z,7.20
2019-01-17T08:52:53.208Z,7.10
2019-01-17T08:55:21.095Z,7.10
2019-01-17T08:57:48.965Z,7.10
2019-01-17T09:00:18.067Z,7.00
2019-01-17T09:02:45.983Z,7.10
2019-01-17T09:05:13.935Z,7.10
2019-01-17T09:07:42.219Z,7.10
2019-01-17T09:10:11.439Z,7.10
2019-01-17T09:12:39.518Z,7.10
2019-01-17T09:15:08.542Z,7.00
2019-01-17T09:17:36.409Z,6.90
2019-01-17T09:20:05.164Z,6.90
2019-01-17T09:22:33.028Z,6.90
2019-01-17T09:25:00.906Z,7.00
2019-01-17T09:27:28.817Z,7.00
2019-01-17T09:29:56.964Z,7.10
2019-01-17T09:32:24.840Z,7.10
2019-01-17T09:34:52.902Z,7.20
2019-01-17T09:37:20.776Z,7.20
2019-01-17T09:39:48.657Z,7.20
2019-01-17T09:42:16.558Z,7.20
2019-01-17T09:44:44.420Z,7.20
2019-01-17T09:47:12.494Z,7.20
2019-01-17T09:49:40.606Z,7.30
2019-01-17T09:52:08.489Z,7.20
2019-01-17T09:54:36.720Z,7.20
2019-01-17T09:57:04.593Z,7.20
2019-01-17T09:59:32.489Z,7.20
2019-01-17T10:02:00.382Z,7.20
2019-01-17T10:04:28.251Z,7.30
2019-01-17T10:06:56.172Z,7.30
2019-01-17T10:09:24.061Z,7.40
2019-01-17T10:11:52.018Z,7.50
2019-01-17T10:14:20.208Z,7.50
2019-01-17T10:16:56.592Z,7.60
2019-01-17T10:19:34.612Z,7.50
2019-01-17T10:22:09.160Z,7.50
2019-01-17T10:24:56.277Z,7.40
2019-01-17T10:27:28.632Z,7.40
2019-01-17T10:30:06.248Z,7.40
2019-01-17T10:32:59.360Z,7.50
2019-01-17T10:35:43.287Z,7.50
2019-01-17T10:38:39.745Z,7.60
2019-01-17T10:41:32.904Z,7.70
2019-01-17T10:44:03.877Z,7.80
2019-01-17T10:46:49.687Z,7.90
2019-01-17T10:49:45.920Z,8.10
2019-01-17T10:52:18.604Z,8.20
2019-01-17T10:55:04.337Z,8.30
2019-01-17T10:57:45.716Z,8.40
2019-01-17T11:00:41.776Z,8.50
2019-01-17T11:03:15.789Z,8.60
2019-01-17T11:05:55.763Z,8.60
2019-01-17T11:08:45.933Z,8.60
2019-01-17T11:11:31.896Z,8.70
2019-01-17T11:14:18.077Z,8.70
2019-01-17T11:17:04.284Z,8.70
2019-01-17T11:19:51.554Z,8.70
2019-01-17T11:22:45.075Z,8.70
2019-01-17T11:25:30.977Z,8.70
2019-01-17T11:28:12.530Z,8.70
2019-01-17T11:30:59.648Z,8.60
2019-01-17T11:33:42.225Z,8.60
2019-01-17T11:36:44.480Z,8.50
2019-01-17T11:39:18.080Z,8.50
2019-01-17T11:42:04.147Z,8.50
2019-01-17T11:44:40.424Z,8.50
2019-01-17T11:47:18.900Z,8.50
2019-01-17T11:50:06.037Z,8.60
2019-01-17T11:52:45.063Z,8.70
2019-01-17T11:55:34.779Z,8.80
2019-01-17T11:58:12.035Z,9.00
2019-01-17T12:00:53.894Z,9.00
2019-01-17T12:03:25.521Z,9.10
2019-01-17T12:05:53.418Z,9.20
2019-01-17T12:08:21.356Z,9.30
2019-01-17T12:10:49.295Z,9.50
2019-01-17T12:13:17.458Z,9.60
2019-01-17T12:15:45.632Z,9.60
2019-01-17T12:18:13.777Z,9.40
2019-01-17T12:20:41.725Z,9.30
2019-01-17T12:23:10.217Z,9.20
2019-01-17T12:25:38.361Z,9.00
2019-01-17T12:28:06.356Z,8.90
2019-01-17T12:30:34.231Z,8.80
2019-01-17T12:33:02.126Z,8.60
2019-01-17T12:35:30.009Z,8.50
2019-01-17T12:37:57.888Z,8.40
2019-01-17T12:40:25.799Z,8.30
2019-01-17T12:42:53.700Z,8.20
2019-01-17T12:45:24.308Z,8.10
2019-01-17T12:47:52.168Z,7.90
2019-01-17T12:50:20.073Z,7.80
2019-01-17T12:52:48.040Z,7.70
2019-01-17T12:55:16.028Z,7.60
2019-01-17T12:57:43.937Z,7.60
2019-01-17T13:00:16.572Z,7.60
2019-01-17T13:02:44.676Z,7.60
2019-01-17T13:05:12.779Z,7.60
2019-01-17T13:07:40.720Z,7.60
2019-01-17T13:10:09.416Z,7.70
2019-01-17T13:12:37.399Z,7.70
2019-01-17T13:15:06.212Z,7.70
2019-01-17T13:17:34.978Z,7.70
2019-01-17T13:20:03.294Z,7.70
2019-01-17T13:22:31.762Z,7.70
2019-01-17T13:24:59.795Z,7.70
2019-01-17T13:27:27.680Z,7.60
2019-01-17T13:29:55.590Z,7.60
2019-01-17T13:32:23.549Z,7.60
2019-01-17T13:34:51.786Z,7.60
2019-01-17T13:37:20.161Z,7.50
2019-01-17T13:39:48.659Z,7.40
2019-01-17T13:42:20.763Z,7.20
2019-01-17T13:44:46.179Z,7.10
2019-01-17T13:47:14.276Z,7.00
2019-01-17T13:49:42.158Z,6.90
2019-01-17T13:52:10.252Z,6.60
2019-01-17T13:54:38.405Z,6.50
2019-01-17T13:57:07.635Z,6.40
2019-01-17T13:59:35.791Z,6.30
2019-01-17T14:02:04.137Z,6.20
2019-01-17T14:04:32.012Z,6.10
2019-01-17T14:07:00.114Z,6.10
2019-01-17T14:09:28.032Z,6.00
2019-01-17T14:11:56.205Z,6.00
2019-01-17T14:14:24.081Z,6.00
2019-01-17T14:16:52.037Z,6.10
2019-01-17T14:19:19.986Z,6.20
2019-01-17T14:21:48.107Z,6.50
2019-01-17T14:24:16.001Z,6.80
2019-01-17T14:26:43.891Z,7.00
2019-01-17T14:29:11.850Z,7.20
2019-01-17T14:31:39.744Z,7.20
2019-01-17T14:34:07.607Z,7.10
2019-01-17T14:36:35.583Z,7.00
2019-01-17T14:39:04.312Z,6.90
2019-01-17T14:41:32.203Z,6.90
2019-01-17T14:44:00.094Z,7.00
2019-01-17T14:46:27.986Z,7.10
2019-01-17T14:48:56.113Z,7.20
2019-01-17T14:51:24.132Z,7.20
2019-01-17T14:53:52.056Z,7.10
2019-01-17T14:56:19.955Z,7.10
2019-01-17T14:58:47.824Z,7.00
2019-01-17T15:01:15.741Z,6.80
2019-01-17T15:03:43.626Z,6.80
2019-01-17T15:06:11.605Z,6.70
2019-01-17T15:08:39.472Z,6.70
2019-01-17T15:11:07.375Z,6.60
2019-01-17T15:13:35.252Z,6.50
2019-01-17T15:16:03.488Z,6.40
2019-01-17T15:18:31.377Z,6.40
2019-01-17T15:20:59.638Z,6.40
2019-01-17T15:23:27.625Z,6.40
2019-01-17T15:25:55.512Z,6.40
2019-01-17T15:28:23.887Z,6.40
2019-01-17T15:30:51.865Z,6.40
2019-01-17T15:33:19.901Z,6.40
2019-01-17T15:35:47.848Z,6.40
2019-01-17T15:38:15.867Z,6.40
2019-01-17T15:40:43.880Z,6.20
2019-01-17T15:43:11.861Z,6.10
2019-01-17T15:45:40.007Z,5.90
2019-01-17T15:48:08.089Z,5.80
2019-01-17T15:50:36.133Z,5.70
2019-01-17T15:53:04.416Z,5.80
2019-01-17T15:55:32.301Z,5.70
2019-01-17T15:58:00.188Z,5.70
2019-01-17T16:00:29.144Z,5.80
2019-01-17T16:02:57.113Z,5.80
2019-01-17T16:05:26.702Z,5.90
2019-01-17T16:07:55.116Z,5.90
2019-01-17T16:10:23.199Z,6.00
2019-01-17T16:12:51.128Z,6.00
2019-01-17T16:15:20.092Z,6.10
2019-01-17T16:17:48.020Z,6.10
2019-01-17T16:20:17.270Z,6.00
2019-01-17T16:22:45.260Z,6.00
2019-01-17T16:25:14.516Z,6.00
2019-01-17T16:27:42.429Z,6.00
2019-01-17T16:30:17.475Z,6.00
2019-01-17T16:32:45.488Z,6.00
2019-01-17T16:35:13.525Z,6.00
2019-01-17T16:37:41.744Z,6.00
2019-01-17T16:40:10.012Z,6.10
2019-01-17T16:42:38.238Z,6.00
2019-01-17T16:45:06.593Z,5.90
2019-01-17T16:47:35.371Z,5.80
2019-01-17T16:50:03.852Z,5.70
2019-01-17T16:52:31.820Z,5.70
2019-01-17T16:54:59.801Z,5.60
2019-01-17T16:57:27.713Z,5.50
2019-01-17T16:59:55.637Z,5.30
2019-01-17T17:02:23.524Z,5.20
2019-01-17T17:04:51.612Z,5.20
2019-01-17T17:07:19.525Z,5.20
2019-01-17T17:09:47.436Z,5.10
2019-01-17T17:12:15.545Z,5.10
2019-01-17T17:14:44.038Z,5.10
2019-01-17T17:17:11.917Z,5.10
2019-01-17T17:19:39.885Z,5.10
2019-01-17T17:22:07.785Z,5.10
2019-01-17T17:24:35.689Z,5.10
2019-01-17T17:27:04.035Z,5.20
2019-01-17T17:29:32.352Z,5.20
2019-01-17T17:32:00.287Z,5.20
2019-01-17T17:34:28.257Z,5.10
2019-01-17T17:36:56.160Z,5.10
2019-01-17T17:39:24.096Z,5.10
2019-01-17T17:41:52.193Z,5.10
2019-01-17T17:44:20.364Z,5.10
2019-01-17T17:46:48.305Z,5.10
2019-01-17T17:49:16.263Z,5.20
2019-01-17T17:51:44.203Z,5.30
2019-01-17T17:54:12.559Z,5.30
2019-01-17T17:56:40.807Z,5.30
2019-01-17T17:59:08.791Z,5.30
2019-01-17T18:01:39.595Z,5.20
2019-01-17T18:04:07.567Z,5.20
2019-01-17T18:06:35.515Z,5.20
2019-01-17T18:09:05.112Z,5.20
2019-01-17T18:11:33.188Z,5.20
2019-01-17T18:14:01.145Z,5.20
2019-01-17T18:16:29.209Z,5.30
2019-01-17T18:18:57.104Z,5.10
2019-01-17T18:21:25.662Z,5.00
2019-01-17T18:23:53.618Z,4.80
2019-01-17T18:26:21.697Z,4.60
2019-01-17T18:28:49.702Z,4.50
2019-01-17T18:31:17.688Z,4.40
2019-01-17T18:33:45.698Z,4.20
2019-01-17T18:36:13.795Z,4.20
2019-01-17T18:38:41.940Z,4.10
2019-01-17T18:41:09.954Z,4.00
2019-01-17T18:43:38.262Z,4.00
2019-01-17T18:46:06.363Z,4.00
2019-01-17T18:48:34.293Z,3.90
2019-01-17T18:51:02.706Z,3.80
2019-01-17T18:53:30.678Z,3.70
2019-01-17T18:55:58.924Z,3.60
2019-01-17T18:58:27.096Z,3.50
2019-01-17T19:00:55.319Z,3.40
2019-01-17T19:03:23.214Z,3.40
2019-01-17T19:05:51.320Z,3.30
2019-01-17T19:08:19.222Z,3.30
2019-01-17T19:10:47.198Z,3.20
2019-01-17T19:13:15.246Z,3.20
2019-01-17T19:15:43.169Z,3.10
2019-01-17T19:18:11.217Z,3.00
2019-01-17T19:20:39.191Z,3.00
2019-01-17T19:23:07.153Z,2.90
2019-01-17T19:25:35.232Z,2.90
2019-01-17T19:28:03.270Z,2.90
2019-01-17T19:30:31.236Z,2.90
2019-01-17T19:32:59.159Z,2.80
2019-01-17T19:35:27.172Z,2.80
2019-01-17T19:37:55.453Z,2.80
2019-01-17T19:40:24.182Z,2.80
2019-01-17T19:42:52.259Z,2.70
2019-01-17T19:45:20.295Z,2.60
2019-01-17T19:47:48.281Z,2.50
2019-01-17T19:50:20.462Z,2.40
2019-01-17T19:52:48.727Z,2.30
2019-01-17T19:55:16.810Z,2.30
2019-01-17T19:57:44.838Z,2.20
2019-01-17T20:00:13.377Z,2.20
2019-01-17T20:02:41.293Z,2.20
2019-01-17T20:05:10.367Z,2.20
2019-01-17T20:07:38.317Z,2.20
2019-01-17T20:10:07.895Z,2.20
2019-01-17T20:12:35.949Z,2.10
2019-01-17T20:15:04.791Z,2.00
2019-01-17T20:17:32.952Z,1.90
2019-01-17T20:20:00.926Z,1.90
2019-01-17T20:22:28.890Z,1.80
2019-01-17T20:24:56.906Z,1.70
2019-01-17T20:27:24.870Z,1.60
2019-01-17T20:29:52.758Z,1.50
2019-01-17T20:32:21.012Z,1.40
2019-01-17T20:34:48.888Z,1.30
2019-01-17T20:37:16.978Z,1.20
2019-01-17T20:39:44.936Z,1.10
2019-01-17T20:42:13.037Z,1.20
2019-01-17T20:44:41.121Z,1.20
2019-01-17T20:47:09.324Z,1.30
2019-01-17T20:49:37.295Z,1.40
2019-01-17T20:52:05.318Z,1.60
2019-01-17T20:54:33.315Z,1.70
2019-01-17T20:57:01.582Z,1.70
2019-01-17T20:59:29.529Z,1.80
2019-01-17T21:02:00.873Z,1.80
2019-01-17T21:04:28.964Z,1.90
2019-01-17T21:06:57.197Z,1.90
2019-01-17T21:09:25.461Z,1.90
2019-01-17T21:11:53.445Z,1.90
2019-01-17T21:14:21.437Z,2.00
2019-01-17T21:16:49.506Z,2.10
2019-01-17T21:19:17.523Z,2.30
2019-01-17T21:21:45.487Z,2.30
2019-01-17T21:24:13.676Z,2.30
2019-01-17T21:26:41.577Z,2.40
2019-01-17T21:29:09.898Z,2.40
2019-01-17T21:31:37.812Z,2.40
2019-01-17T21:34:05.981Z,2.40
2019-01-17T21:36:33.897Z,2.40
2019-01-17T21:39:01.965Z,2.40
2019-01-17T21:41:30.342Z,2.50
2019-01-17T21:43:58.360Z,2.60
2019-01-17T21:46:26.685Z,2.60
2019-01-17T21:48:54.783Z,2.60
2019-01-17T21:51:22.841Z,2.60
2019-01-17T21:53:50.708Z,2.50
2019-01-17T21:56:18.695Z,2.40
2019-01-17T21:58:46.572Z,2.40
2019-01-17T22:01:14.473Z,2.30
2019-01-17T22:03:42.581Z,2.30
2019-01-17T22:06:10.460Z,2.20
2019-01-17T22:08:38.659Z,2.10
2019-01-17T22:11:06.670Z,2.00
2019-01-17T22:13:34.633Z,2.00
2019-01-17T22:16:02.539Z,1.90
2019-01-17T22:18:30.517Z,1.80
2019-01-17T22:20:58.392Z,1.80
2019-01-17T22:23:26.356Z,1.80
2019-01-17T22:25:54.268Z,1.70
2019-01-17T22:28:22.293Z,1.70
2019-01-17T22:30:50.256Z,1.60
2019-01-17T22:33:18.256Z,1.60
2019-01-17T22:35:46.126Z,1.60
2019-01-17T22:38:14.043Z,1.60
2019-01-17T22:40:41.976Z,1.60
2019-01-17T22:43:09.908Z,1.50
2019-01-17T22:45:37.845Z,1.50
2019-01-17T22:48:05.732Z,1.50
2019-01-17T22:50:34.413Z,1.50
2019-01-17T22:53:02.341Z,1.40
2019-01-17T22:55:30.205Z,1.30
2019-01-17T22:57:58.084Z,1.30
2019-01-17T23:00:34.459Z,1.20
2019-01-17T23:03:02.708Z,1.10
2019-01-17T23:05:30.817Z,1.00
2019-01-17T23:07:58.787Z,1.00
2019-01-17T23:10:26.651Z,0.90
2019-01-17T23:12:54.972Z,0.80
2019-01-17T23:15:23.108Z,0.80
2019-01-17T23:17:51.001Z,0.70
2019-01-17T23:20:18.864Z,0.70
2019-01-17T23:22:47.077Z,0.80
2019-01-17T23:25:15.327Z,0.70
2019-01-17T23:27:45.675Z,0.60
2019-01-17T23:30:13.636Z,0.70
2019-01-17T23:32:41.513Z,0.80
2019-01-17T23:35:09.603Z,0.80
2019-01-17T23:37:37.551Z,0.80
2019-01-17T23:40:05.595Z,0.80
2019-01-17T23:42:33.627Z,0.70
2019-01-17T23:45:01.612Z,0.70
2019-01-17T23:47:29.606Z,0.60
2019-01-17T23:49:57.655Z,0.50
2019-01-17T23:52:25.618Z,0.50
2019-01-17T23:54:54.055Z,0.50
2019-01-17T23:57:22.295Z,0.40
2019-01-17T23:59:50.202Z,0.40
